Grand Junction, CO (81507)

4:15 AM MDT on May 29, 2017 (GMT -0600)
| | Change Station
Active Advisory: Flood Advisory Active Notice: Flood Advisory

Elev -9999 ft 0.00 °N, 0.00 °E | Updated 5 minutes ago

Clear
Clear
°F
Feels Like °F
N
Wind Variable Wind from North
Gusts mph

Today
High -- | Low -- °F
--% Chance of Precip.
Yesterday
High -- | Low -- °F
Precip. -- in
Pressure 30.00 in
Visibility 10.0 miles
Clouds Clear
Dew Point Not available.
Humidity Not available.
Rainfall --
Snow Depth Not available.
5:51 AM 8:32 PM
Waxing Crescent, 18% visible
METAR KGJT 290953Z AUTO 00000KT 10SM CLR 12/M02 A3016 RMK AO2 SLP159 T01171022
Pressure 30.00 in
Visibility 10.0 miles
Clouds Clear
Dew Point Not available.
Humidity Not available.
Rainfall --
Snow Depth Not available.
5:51 AM 8:32 PM
Waxing Crescent, 18% visible
METAR KGJT 290953Z AUTO 00000KT 10SM CLR 12/M02 A3016 RMK AO2 SLP159 T01171022

Get Your Daily Forecast Email!

Thanks for signing up!

Be on the lookout for a verification email in your inbox.

You'll start receiving severe weather alerts in your inbox..

×

10-Day Weather Forecast

Almanac

Astronomy

May. 29, 2017 Rise Set
Actual Time
Civil Twilight
Nautical Twilight
Astronomical Twilight
Moon
Length of Visible Light
Length of Day
Tomorrow will be .
, % of the Moon is Illuminated

Today's Extremes

State Highs State Lows

Community

WunderPhotos

Category 6

Welcome to Category 6. This is the collective home for Weather Underground's featured writeups by Dr. Jeff Masters (right), Bob Henson (left), Chris Burt, and other regular contributors.

Nearby

Air Quality

  Air Quality AQ Index Pollutant
Not available.

Snow Depth

Station Depth Elevation

Earthquake Activity

City Distance Mag. Time & Date
Minimum magnitude displayed is 2.5.

Coastal Water Temperatures

Place Temperature

Stations

Nearby Weather Stations

Station Location Temp. Windchill Dew Point Humidity Wind Precip. Elev Updated Type
                   

Watches & Warnings

Flood Advisory
Issued: 10:53 AM MDT May. 28, 2017 – National Weather Service

The flood advisory continues for
the Gunnison river above Grand Junction
* until Monday evening.
* At 10 am Sunday the stage was 10.9 feet.
* Bankfull stage is 8.6 feet.
* Flood stage is 13.0 feet.
* Forecast... the river will continue to fall.



               Fld observed forecast 6 a.M.
Location stg stg day time Mon Tue Wed

Gunnison river
grand junc 13.0 10.9 sun 10 am 10.0 9.1 8.5


Lat... Lon 3878 10825 3870 10825 3903 10862 3906 10859
      3899 10842